sensor_id;sensor_type;location;lat;lon;timestamp;pressure;altitude;pressure_sealevel;temperature;humidity
37634;BME280;32048;49.902;22.508;2022-09-03T00:01:45;99020.69;;;13.05;100.00
37634;BME280;32048;49.902;22.508;2022-09-03T00:04:23;99022.28;;;13.07;100.00
37634;BME280;32048;49.902;22.508;2022-09-03T00:06:59;99019.72;;;13.06;100.00
37634;BME280;32048;49.902;22.508;2022-09-03T00:09:50;99015.53;;;13.02;100.00
37634;BME280;32048;49.902;22.508;2022-09-03T00:12:25;99011.00;;;13.04;100.00
37634;BME280;32048;49.902;22.508;2022-09-03T00:15:02;99013.66;;;13.04;100.00
37634;BME280;32048;49.902;22.508;2022-09-03T00:18:06;99014.69;;;13.01;100.00
37634;BME280;32048;49.902;22.508;2022-09-03T00:20:54;99016.56;;;12.99;100.00
37634;BME280;32048;49.902;22.508;2022-09-03T00:23:27;99006.72;;;13.01;100.00
37634;BME280;32048;49.902;22.508;2022-09-03T00:31:24;98995.56;;;12.96;100.00
37634;BME280;32048;49.902;22.508;2022-09-03T00:34:02;99004.44;;;12.95;100.00
37634;BME280;32048;49.902;22.508;2022-09-03T00:36:41;99009.66;;;12.97;100.00
37634;BME280;32048;49.902;22.508;2022-09-03T00:39:15;99007.94;;;12.96;100.00
37634;BME280;32048;49.902;22.508;2022-09-03T00:45:00;99001.78;;;12.95;100.00
37634;BME280;32048;49.902;22.508;2022-09-03T00:48:04;98994.00;;;12.92;100.00
37634;BME280;32048;49.902;22.508;2022-09-03T00:50:56;98994.09;;;12.90;100.00
37634;BME280;32048;49.902;22.508;2022-09-03T00:53:36;99005.72;;;12.88;100.00
37634;BME280;32048;49.902;22.508;2022-09-03T01:01:15;98998.81;;;12.85;100.00
37634;BME280;32048;49.902;22.508;2022-09-03T01:04:02;99005.03;;;12.84;100.00
37634;BME280;32048;49.902;22.508;2022-09-03T01:06:46;99004.28;;;12.82;100.00
37634;BME280;32048;49.902;22.508;2022-09-03T01:09:19;99003.44;;;12.82;100.00
37634;BME280;32048;49.902;22.508;2022-09-03T01:12:49;99009.69;;;12.81;100.00
37634;BME280;32048;49.902;22.508;2022-09-03T01:33:42;99004.47;;;12.79;100.00
37634;BME280;32048;49.902;22.508;2022-09-03T01:39:01;98995.47;;;12.82;100.00
37634;BME280;32048;49.902;22.508;2022-09-03T01:41:56;98992.06;;;12.80;100.00
37634;BME280;32048;49.902;22.508;2022-09-03T01:59:06;98987.09;;;12.89;100.00
37634;BME280;32048;49.902;22.508;2022-09-03T02:02:06;98981.78;;;12.89;100.00
37634;BME280;32048;49.902;22.508;2022-09-03T02:04:35;98974.63;;;12.92;100.00
37634;BME280;32048;49.902;22.508;2022-09-03T02:07:02;98977.06;;;12.95;100.00
37634;BME280;32048;49.902;22.508;2022-09-03T02:09:30;98982.28;;;12.96;100.00
37634;BME280;32048;49.902;22.508;2022-09-03T02:12:10;98979.72;;;12.95;100.00
37634;BME280;32048;49.902;22.508;2022-09-03T02:14:40;98981.53;;;12.94;100.00
37634;BME280;32048;49.902;22.508;2022-09-03T02:17:07;98982.38;;;12.95;100.00
37634;BME280;32048;49.902;22.508;2022-09-03T02:19:34;98994.78;;;12.94;100.00
37634;BME280;32048;49.902;22.508;2022-09-03T02:22:03;98989.47;;;12.94;100.00
37634;BME280;32048;49.902;22.508;2022-09-03T02:24:31;98992.97;;;12.95;100.00
37634;BME280;32048;49.902;22.508;2022-09-03T02:26:58;98994.66;;;12.96;100.00
37634;BME280;32048;49.902;22.508;2022-09-03T02:29:25;98992.91;;;12.96;100.00
37634;BME280;32048;49.902;22.508;2022-09-03T02:31:53;98996.47;;;12.95;100.00
37634;BME280;32048;49.902;22.508;2022-09-03T02:34:20;98993.75;;;12.97;100.00
37634;BME280;32048;49.902;22.508;2022-09-03T02:36:47;98991.94;;;12.97;100.00
37634;BME280;32048;49.902;22.508;2022-09-03T02:39:15;98988.44;;;12.97;100.00
37634;BME280;32048;49.902;22.508;2022-09-03T02:41:42;98998.97;;;12.98;100.00
37634;BME280;32048;49.902;22.508;2022-09-03T02:46:50;98996.41;;;12.97;100.00
37634;BME280;32048;49.902;22.508;2022-09-03T02:49:19;99001.69;;;12.97;100.00
37634;BME280;32048;49.902;22.508;2022-09-03T02:51:46;99001.63;;;12.98;100.00
37634;BME280;32048;49.902;22.508;2022-09-03T02:54:13;98998.97;;;12.98;100.00
37634;BME280;32048;49.902;22.508;2022-09-03T02:56:46;99006.16;;;12.96;100.00
37634;BME280;32048;49.902;22.508;2022-09-03T02:59:15;99005.19;;;12.97;100.00
37634;BME280;32048;49.902;22.508;2022-09-03T03:01:43;99015.72;;;12.99;100.00
37634;BME280;32048;49.902;22.508;2022-09-03T03:04:12;99004.44;;;12.95;100.00
37634;BME280;32048;49.902;22.508;2022-09-03T03:06:39;99014.25;;;12.93;100.00
37634;BME280;32048;49.902;22.508;2022-09-03T03:09:06;99001.97;;;12.92;100.00
37634;BME280;32048;49.902;22.508;2022-09-03T03:11:34;99004.69;;;12.90;100.00
37634;BME280;32048;49.902;22.508;2022-09-03T03:14:02;99009.22;;;12.88;100.00
37634;BME280;32048;49.902;22.508;2022-09-03T03:16:29;99021.56;;;12.89;100.00
37634;BME280;32048;49.902;22.508;2022-09-03T03:18:56;99012.06;;;12.85;100.00
37634;BME280;32048;49.902;22.508;2022-09-03T03:21:24;99012.00;;;12.87;100.00
37634;BME280;32048;49.902;22.508;2022-09-03T03:23:51;99007.53;;;12.87;100.00
37634;BME280;32048;49.902;22.508;2022-09-03T03:26:19;99012.00;;;12.87;100.00
37634;BME280;32048;49.902;22.508;2022-09-03T03:28:47;99014.44;;;12.90;100.00
37634;BME280;32048;49.902;22.508;2022-09-03T03:31:17;99008.31;;;12.89;100.00
37634;BME280;32048;49.902;22.508;2022-09-03T03:33:51;99004.78;;;12.89;100.00
37634;BME280;32048;49.902;22.508;2022-09-03T03:36:19;99001.19;;;12.90;100.00
37634;BME280;32048;49.902;22.508;2022-09-03T03:38:46;99002.03;;;12.90;100.00
37634;BME280;32048;49.902;22.508;2022-09-03T03:41:17;98999.38;;;12.90;100.00
37634;BME280;32048;49.902;22.508;2022-09-03T03:43:44;99009.91;;;12.92;100.00
37634;BME280;32048;49.902;22.508;2022-09-03T03:46:11;99004.63;;;12.92;100.00
37634;BME280;32048;49.902;22.508;2022-09-03T03:48:38;99001.88;;;12.94;100.00
37634;BME280;32048;49.902;22.508;2022-09-03T03:51:07;99006.22;;;12.95;100.00
37634;BME280;32048;49.902;22.508;2022-09-03T03:53:37;99007.06;;;12.95;100.00
37634;BME280;32048;49.902;22.508;2022-09-03T03:56:06;99003.38;;;12.98;100.00
37634;BME280;32048;49.902;22.508;2022-09-03T03:58:35;99006.16;;;12.96;100.00
37634;BME280;32048;49.902;22.508;2022-09-03T04:01:11;99005.19;;;12.97;100.00
37634;BME280;32048;49.902;22.508;2022-09-03T04:03:39;99005.97;;;12.99;100.00
37634;BME280;32048;49.902;22.508;2022-09-03T04:06:08;98998.78;;;13.01;100.00
37634;BME280;32048;49.902;22.508;2022-09-03T04:08:37;99000.38;;;13.04;100.00
37634;BME280;32048;49.902;22.508;2022-09-03T04:11:07;99004.84;;;13.03;100.00
37634;BME280;32048;49.902;22.508;2022-09-03T04:13:37;99002.19;;;13.03;100.00
37634;BME280;32048;49.902;22.508;2022-09-03T04:16:17;98998.69;;;13.03;100.00
37634;BME280;32048;49.902;22.508;2022-09-03T04:18:44;98997.81;;;13.02;100.00
37634;BME280;32048;49.902;22.508;2022-09-03T04:21:17;98994.06;;;13.06;100.00
37634;BME280;32048;49.902;22.508;2022-09-03T04:23:47;98995.78;;;13.07;100.00
37634;BME280;32048;49.902;22.508;2022-09-03T04:26:16;98993.91;;;13.09;100.00
37634;BME280;32048;49.902;22.508;2022-09-03T04:28:44;98988.41;;;13.13;100.00
37634;BME280;32048;49.902;22.508;2022-09-03T04:31:14;98990.88;;;13.16;100.00
37634;BME280;32048;49.902;22.508;2022-09-03T04:45:51;98982.69;;;13.79;100.00
37634;BME280;32048;49.902;22.508;2022-09-03T04:48:21;98992.81;;;13.72;100.00
37634;BME280;32048;49.902;22.508;2022-09-03T04:50:48;98990.44;;;13.68;100.00
37634;BME280;32048;49.902;22.508;2022-09-03T04:53:15;98994.09;;;13.65;100.00
37634;BME280;32048;49.902;22.508;2022-09-03T04:55:42;98994.22;;;13.64;100.00
37634;BME280;32048;49.902;22.508;2022-09-03T04:58:09;98994.22;;;13.64;100.00
37634;BME280;32048;49.902;22.508;2022-09-03T05:00:36;98997.81;;;13.63;100.00
37634;BME280;32048;49.902;22.508;2022-09-03T05:03:03;98991.66;;;13.62;100.00
37634;BME280;32048;49.902;22.508;2022-09-03T05:05:31;98990.81;;;13.62;100.00
37634;BME280;32048;49.902;22.508;2022-09-03T05:08:00;98993.47;;;13.62;100.00
37634;BME280;32048;49.902;22.508;2022-09-03T05:10:30;98996.13;;;13.62;100.00
37634;BME280;32048;49.902;22.508;2022-09-03T05:13:07;98996.78;;;13.65;100.00
37634;BME280;32048;49.902;22.508;2022-09-03T05:15:34;98999.25;;;13.68;100.00
37634;BME280;32048;49.902;22.508;2022-09-03T05:18:02;98999.81;;;13.73;100.00
37634;BME280;32048;49.902;22.508;2022-09-03T05:20:29;99005.97;;;13.74;100.00
37634;BME280;32048;49.902;22.508;2022-09-03T05:23:01;99001.72;;;13.71;100.00
37634;BME280;32048;49.902;22.508;2022-09-03T05:25:29;98997.09;;;13.75;100.00
37634;BME280;32048;49.902;22.508;2022-09-03T05:28:00;98999.66;;;13.77;100.00
37634;BME280;32048;49.902;22.508;2022-09-03T05:30:27;99000.28;;;13.80;100.00
37634;BME280;32048;49.902;22.508;2022-09-03T05:32:55;99001.91;;;13.83;100.00
37634;BME280;32048;49.902;22.508;2022-09-03T05:35:22;99007.88;;;13.86;100.00
37634;BME280;32048;49.902;22.508;2022-09-03T05:37:55;98999.72;;;13.89;100.00
37634;BME280;32048;49.902;22.508;2022-09-03T05:40:22;98995.25;;;13.90;100.00
37634;BME280;32048;49.902;22.508;2022-09-03T05:42:54;98996.78;;;13.94;100.00
37634;BME280;32048;49.902;22.508;2022-09-03T05:45:22;99007.59;;;13.91;100.00
37634;BME280;32048;49.902;22.508;2022-09-03T05:47:49;98995.38;;;13.88;100.00
37634;BME280;32048;49.902;22.508;2022-09-03T05:50:17;99003.34;;;13.88;100.00
37634;BME280;32048;49.902;22.508;2022-09-03T05:52:44;99006.16;;;13.85;100.00
37634;BME280;32048;49.902;22.508;2022-09-03T05:55:11;99003.34;;;13.88;100.00
37634;BME280;32048;49.902;22.508;2022-09-03T05:57:41;99013.13;;;13.88;100.00
37634;BME280;32048;49.902;22.508;2022-09-03T06:00:09;99010.34;;;13.89;100.00
37634;BME280;32048;49.902;22.508;2022-09-03T06:02:36;99006.56;;;13.93;100.00
37634;BME280;32048;49.902;22.508;2022-09-03T06:05:04;99013.19;;;14.01;100.00
37634;BME280;32048;49.902;22.508;2022-09-03T06:07:30;99012.91;;;14.05;100.00
37634;BME280;32048;49.902;22.508;2022-09-03T06:09:58;99002.97;;;14.09;100.00
37634;BME280;32048;49.902;22.508;2022-09-03T06:12:25;99011.84;;;14.08;100.00
37634;BME280;32048;49.902;22.508;2022-09-03T06:14:53;99009.31;;;14.06;100.00
37634;BME280;32048;49.902;22.508;2022-09-03T06:17:21;99009.19;;;14.08;100.00
37634;BME280;32048;49.902;22.508;2022-09-03T06:19:48;99000.09;;;14.12;100.00
37634;BME280;32048;49.902;22.508;2022-09-03T06:22:15;99020.88;;;14.20;100.00
37634;BME280;32048;49.902;22.508;2022-09-03T06:24:42;99006.72;;;14.19;100.00
37634;BME280;32048;49.902;22.508;2022-09-03T06:27:09;99009.00;;;14.25;100.00
37634;BME280;32048;49.902;22.508;2022-09-03T06:29:36;99010.22;;;14.34;100.00
37634;BME280;32048;49.902;22.508;2022-09-03T06:32:04;99009.75;;;14.42;99.53
37634;BME280;32048;49.902;22.508;2022-09-03T06:34:31;99008.59;;;14.46;98.53
37634;BME280;32048;49.902;22.508;2022-09-03T06:36:58;99013.06;;;14.45;98.33
37634;BME280;32048;49.902;22.508;2022-09-03T06:39:25;99014.09;;;14.43;98.63
37634;BME280;32048;49.902;22.508;2022-09-03T06:41:53;99021.31;;;14.41;99.16
37634;BME280;32048;49.902;22.508;2022-09-03T06:44:20;99021.31;;;14.41;99.40
37634;BME280;32048;49.902;22.508;2022-09-03T06:46:47;99027.59;;;14.40;99.22
37634;BME280;32048;49.902;22.508;2022-09-03T06:49:16;99019.16;;;14.33;99.34
37634;BME280;32048;49.902;22.508;2022-09-03T06:51:43;99048.00;;;14.25;99.36
37634;BME280;32048;49.902;22.508;2022-09-03T06:54:11;99036.16;;;14.16;99.88
37634;BME280;32048;49.902;22.508;2022-09-03T06:56:40;99037.28;;;14.12;100.00
37634;BME280;32048;49.902;22.508;2022-09-03T06:59:12;99030.28;;;14.11;100.00
37634;BME280;32048;49.902;22.508;2022-09-03T07:01:41;99033.56;;;14.14;100.00
37634;BME280;32048;49.902;22.508;2022-09-03T07:04:13;99036.91;;;14.18;100.00
37634;BME280;32048;49.902;22.508;2022-09-03T07:06:45;99033.28;;;14.19;100.00
37634;BME280;32048;49.902;22.508;2022-09-03T07:09:12;99037.66;;;14.20;100.00
37634;BME280;32048;49.902;22.508;2022-09-03T07:11:41;99039.00;;;14.13;100.00
37634;BME280;32048;49.902;22.508;2022-09-03T07:14:16;99052.94;;;14.17;100.00
37634;BME280;32048;49.902;22.508;2022-09-03T07:16:44;99051.16;;;14.17;100.00
37634;BME280;32048;49.902;22.508;2022-09-03T07:19:12;99053.50;;;14.22;100.00
37634;BME280;32048;49.902;22.508;2022-09-03T07:21:41;99053.09;;;14.28;100.00
37634;BME280;32048;49.902;22.508;2022-09-03T07:24:15;99057.19;;;14.33;100.00
37634;BME280;32048;49.902;22.508;2022-09-03T07:26:42;99052.44;;;14.39;100.00
37634;BME280;32048;49.902;22.508;2022-09-03T07:29:18;99049.50;;;14.43;100.00
37634;BME280;32048;49.902;22.508;2022-09-03T07:31:49;99047.31;;;14.50;100.00
37634;BME280;32048;49.902;22.508;2022-09-03T07:34:20;99049.31;;;14.61;100.00
37634;BME280;32048;49.902;22.508;2022-09-03T07:36:52;99045.78;;;14.74;100.00
37634;BME280;32048;49.902;22.508;2022-09-03T07:39:19;99047.81;;;14.98;99.40
37634;BME280;32048;49.902;22.508;2022-09-03T07:41:47;99050.84;;;15.19;97.61
37634;BME280;32048;49.902;22.508;2022-09-03T07:44:16;99053.03;;;15.39;95.75
37634;BME280;32048;49.902;22.508;2022-09-03T07:46:46;99058.28;;;15.54;93.01
37634;BME280;32048;49.902;22.508;2022-09-03T07:49:13;99072.13;;;15.59;92.41
37634;BME280;32048;49.902;22.508;2022-09-03T07:51:40;99065.75;;;15.62;91.54
37634;BME280;32048;49.902;22.508;2022-09-03T07:54:09;99065.75;;;15.62;92.23
37634;BME280;32048;49.902;22.508;2022-09-03T07:56:38;99071.72;;;15.65;93.06
37634;BME280;32048;49.902;22.508;2022-09-03T07:59:07;99078.38;;;15.72;91.53
37634;BME280;32048;49.902;22.508;2022-09-03T08:01:35;99083.00;;;15.69;91.74
37634;BME280;32048;49.902;22.508;2022-09-03T08:04:05;99078.75;;;15.66;92.45
37634;BME280;32048;49.902;22.508;2022-09-03T08:06:36;99081.97;;;15.71;91.61
37634;BME280;32048;49.902;22.508;2022-09-03T08:09:06;99079.00;;;15.76;90.73
37634;BME280;32048;49.902;22.508;2022-09-03T08:11:37;99081.91;;;15.86;89.91
37634;BME280;32048;49.902;22.508;2022-09-03T08:14:07;99085.31;;;15.88;89.43
37634;BME280;32048;49.902;22.508;2022-09-03T08:16:39;99085.09;;;15.91;90.59
37634;BME280;32048;49.902;22.508;2022-09-03T08:19:08;99084.03;;;16.06;88.55
37634;BME280;32048;49.902;22.508;2022-09-03T08:21:37;99089.69;;;16.14;88.54
37634;BME280;32048;49.902;22.508;2022-09-03T08:24:04;99088.81;;;16.14;87.11
37634;BME280;32048;49.902;22.508;2022-09-03T08:26:34;99090.72;;;16.12;88.81
37634;BME280;32048;49.902;22.508;2022-09-03T08:29:01;99094.28;;;16.12;88.24
37634;BME280;32048;49.902;22.508;2022-09-03T08:31:29;99084.56;;;16.11;87.33
37634;BME280;32048;49.902;22.508;2022-09-03T08:34:00;99096.94;;;15.99;88.31
37634;BME280;32048;49.902;22.508;2022-09-03T08:36:35;99083.28;;;15.91;89.12
37634;BME280;32048;49.902;22.508;2022-09-03T08:39:05;99083.59;;;15.99;88.18
37634;BME280;32048;49.902;22.508;2022-09-03T08:46:57;99085.09;;;16.42;85.86
37634;BME280;32048;49.902;22.508;2022-09-03T08:49:33;99081.50;;;16.67;85.03
37634;BME280;32048;49.902;22.508;2022-09-03T08:52:21;99075.84;;;16.85;82.56
37634;BME280;32048;49.902;22.508;2022-09-03T08:54:51;99083.28;;;16.92;82.22
37634;BME280;32048;49.902;22.508;2022-09-03T08:57:21;99085.00;;;16.93;79.99
37634;BME280;32048;49.902;22.508;2022-09-03T08:59:53;99091.28;;;16.92;81.90
37634;BME280;32048;49.902;22.508;2022-09-03T09:08:34;99090.44;;;17.99;74.30
37634;BME280;32048;49.902;22.508;2022-09-03T09:11:13;99079.22;;;17.83;72.86
37634;BME280;32048;49.902;22.508;2022-09-03T09:16:39;99075.78;;;17.45;74.46
37634;BME280;32048;49.902;22.508;2022-09-03T09:21:44;99091.03;;;17.32;77.52
37634;BME280;32048;49.902;22.508;2022-09-03T09:24:20;99094.22;;;17.49;76.43
37634;BME280;32048;49.902;22.508;2022-09-03T09:26:55;99099.66;;;17.71;73.12
37634;BME280;32048;49.902;22.508;2022-09-03T09:29:26;99092.22;;;17.88;72.87
37634;BME280;32048;49.902;22.508;2022-09-03T09:31:55;99084.69;;;17.93;72.76
37634;BME280;32048;49.902;22.508;2022-09-03T09:34:23;99090.69;;;18.07;74.40
37634;BME280;32048;49.902;22.508;2022-09-03T09:36:54;99096.28;;;18.38;72.09
37634;BME280;32048;49.902;22.508;2022-09-03T09:39:22;99092.41;;;18.42;71.72
37634;BME280;32048;49.902;22.508;2022-09-03T09:42:09;99087.19;;;18.30;71.13
37634;BME280;32048;49.902;22.508;2022-09-03T09:44:39;99096.41;;;18.14;71.53
37634;BME280;32048;49.902;22.508;2022-09-03T09:47:08;99098.69;;;17.96;72.83
37634;BME280;32048;49.902;22.508;2022-09-03T09:49:50;99101.47;;;17.95;73.05
37634;BME280;32048;49.902;22.508;2022-09-03T09:52:17;99104.16;;;18.06;73.88
37634;BME280;32048;49.902;22.508;2022-09-03T09:54:45;99104.31;;;18.27;72.13
37634;BME280;32048;49.902;22.508;2022-09-03T09:57:23;99107.00;;;18.49;71.72
37634;BME280;32048;49.902;22.508;2022-09-03T10:00:04;99103.34;;;18.51;69.10
37634;BME280;32048;49.902;22.508;2022-09-03T10:02:35;99101.78;;;18.37;69.40
37634;BME280;32048;49.902;22.508;2022-09-03T10:05:23;99107.19;;;18.01;69.60
37634;BME280;32048;49.902;22.508;2022-09-03T10:08:03;99106.63;;;17.74;72.41
37634;BME280;32048;49.902;22.508;2022-09-03T10:10:33;99113.09;;;17.58;73.05
37634;BME280;32048;49.902;22.508;2022-09-03T10:13:08;99122.22;;;17.32;73.28
37634;BME280;32048;49.902;22.508;2022-09-03T10:15:47;99124.44;;;17.01;75.18
37634;BME280;32048;49.902;22.508;2022-09-03T10:18:42;99126.00;;;16.79;76.93
37634;BME280;32048;49.902;22.508;2022-09-03T10:21:19;99122.88;;;16.86;76.69
37634;BME280;32048;49.902;22.508;2022-09-03T10:24:03;99118.63;;;16.83;77.67
37634;BME280;32048;49.902;22.508;2022-09-03T10:26:42;99126.63;;;16.83;77.74
37634;BME280;32048;49.902;22.508;2022-09-03T10:29:18;99116.47;;;16.88;78.04
37634;BME280;32048;49.902;22.508;2022-09-03T10:37:37;99118.34;;;17.12;76.18
37634;BME280;32048;49.902;22.508;2022-09-03T10:49:08;99110.88;;;17.52;72.90
37634;BME280;32048;49.902;22.508;2022-09-03T11:00:15;99109.06;;;18.46;70.42
37634;BME280;32048;49.902;22.508;2022-09-03T11:10:56;99113.44;;;18.92;65.23
37634;BME280;32048;49.902;22.508;2022-09-03T11:13:30;99107.38;;;18.79;66.53
37634;BME280;32048;49.902;22.508;2022-09-03T11:16:16;99105.31;;;18.60;67.99
37634;BME280;32048;49.902;22.508;2022-09-03T11:21:25;99110.59;;;19.16;67.15
37634;BME280;32048;49.902;22.508;2022-09-03T11:24:04;99113.38;;;19.58;64.03
37634;BME280;32048;49.902;22.508;2022-09-03T11:26:35;99112.97;;;19.42;62.31
37634;BME280;32048;49.902;22.508;2022-09-03T11:29:10;99102.47;;;19.18;65.14
37634;BME280;32048;49.902;22.508;2022-09-03T11:39:56;99097.28;;;18.82;66.10
37634;BME280;32048;49.902;22.508;2022-09-03T11:45:10;99085.25;;;18.65;67.34
37634;BME280;32048;49.902;22.508;2022-09-03T11:47:43;99083.06;;;18.59;67.13
37634;BME280;32048;49.902;22.508;2022-09-03T11:50:23;99089.72;;;18.54;68.13
37634;BME280;32048;49.902;22.508;2022-09-03T11:53:07;99085.47;;;18.51;67.37
37634;BME280;32048;49.902;22.508;2022-09-03T11:58:33;99089.63;;;18.33;67.78
37634;BME280;32048;49.902;22.508;2022-09-03T12:01:03;99088.03;;;18.19;68.52
37634;BME280;32048;49.902;22.508;2022-09-03T12:12:51;99077.81;;;18.13;67.29
37634;BME280;32048;49.902;22.508;2022-09-03T12:18:06;99077.22;;;18.32;66.19
37634;BME280;32048;49.902;22.508;2022-09-03T12:21:06;99100.66;;;18.17;66.55
37634;BME280;32048;49.902;22.508;2022-09-03T12:23:43;99086.94;;;18.55;68.09
37634;BME280;32048;49.902;22.508;2022-09-03T12:26:13;99082.19;;;19.04;65.57
37634;BME280;32048;49.902;22.508;2022-09-03T12:28:48;99090.63;;;19.20;61.96
37634;BME280;32048;49.902;22.508;2022-09-03T12:31:22;99082.72;;;19.19;62.75
37634;BME280;32048;49.902;22.508;2022-09-03T12:33:53;99075.81;;;19.16;63.29
37634;BME280;32048;49.902;22.508;2022-09-03T12:36:21;99060.38;;;19.08;62.89
37634;BME280;32048;49.902;22.508;2022-09-03T12:38:49;99073.53;;;19.00;63.00
37634;BME280;32048;49.902;22.508;2022-09-03T12:41:36;99059.44;;;18.87;63.67
37634;BME280;32048;49.902;22.508;2022-09-03T12:44:04;99069.06;;;18.89;63.67
37634;BME280;32048;49.902;22.508;2022-09-03T12:46:32;99068.59;;;18.84;63.77
37634;BME280;32048;49.902;22.508;2022-09-03T12:49:03;99063.59;;;18.68;63.22
37634;BME280;32048;49.902;22.508;2022-09-03T12:51:59;99059.81;;;18.60;64.15
37634;BME280;32048;49.902;22.508;2022-09-03T12:54:33;99066.53;;;18.65;64.86
37634;BME280;32048;49.902;22.508;2022-09-03T12:57:02;99054.34;;;18.73;64.13
37634;BME280;32048;49.902;22.508;2022-09-03T12:59:32;99062.03;;;18.77;64.42
37634;BME280;32048;49.902;22.508;2022-09-03T13:02:07;99075.75;;;18.73;63.07
37634;BME280;32048;49.902;22.508;2022-09-03T13:04:39;99070.53;;;18.60;66.17
37634;BME280;32048;49.902;22.508;2022-09-03T13:07:34;99067.13;;;18.58;64.84
37634;BME280;32048;49.902;22.508;2022-09-03T13:10:03;99061.31;;;18.41;66.12
37634;BME280;32048;49.902;22.508;2022-09-03T13:12:57;99067.47;;;18.08;67.79
37634;BME280;32048;49.902;22.508;2022-09-03T13:15:24;99066.75;;;18.06;68.73
37634;BME280;32048;49.902;22.508;2022-09-03T13:17:56;99070.78;;;18.12;67.40
37634;BME280;32048;49.902;22.508;2022-09-03T13:20:34;99056.81;;;18.31;69.25
37634;BME280;32048;49.902;22.508;2022-09-03T13:31:43;99058.00;;;18.60;64.54
37634;BME280;32048;49.902;22.508;2022-09-03T13:34:21;99064.19;;;18.38;66.29
37634;BME280;32048;49.902;22.508;2022-09-03T13:37:08;99058.38;;;18.22;68.35
37634;BME280;32048;49.902;22.508;2022-09-03T13:40:18;99069.19;;;18.32;67.93
37634;BME280;32048;49.902;22.508;2022-09-03T13:42:52;99071.84;;;18.32;65.92
37634;BME280;32048;49.902;22.508;2022-09-03T13:45:40;99060.41;;;17.96;68.09
37634;BME280;32048;49.902;22.508;2022-09-03T13:48:15;99049.25;;;17.66;70.75
37634;BME280;32048;49.902;22.508;2022-09-03T13:54:13;99049.81;;;17.48;73.37
37634;BME280;32048;49.902;22.508;2022-09-03T13:57:22;99054.72;;;17.54;73.54
37634;BME280;32048;49.902;22.508;2022-09-03T14:00:00;99054.19;;;17.49;73.53
37634;BME280;32048;49.902;22.508;2022-09-03T14:02:45;99053.47;;;17.47;73.22
37634;BME280;32048;49.902;22.508;2022-09-03T14:05:54;99056.38;;;17.43;73.01
37634;BME280;32048;49.902;22.508;2022-09-03T14:08:34;99058.25;;;17.30;73.59
37634;BME280;32048;49.902;22.508;2022-09-03T14:18:58;99066.59;;;17.01;74.64
37634;BME280;32048;49.902;22.508;2022-09-03T14:21:38;99079.94;;;17.01;75.45
37634;BME280;32048;49.902;22.508;2022-09-03T14:26:57;99078.53;;;17.33;74.70
37634;BME280;32048;49.902;22.508;2022-09-03T14:29:27;99081.22;;;17.44;73.87
37634;BME280;32048;49.902;22.508;2022-09-03T14:32:26;99077.91;;;17.29;74.60
37634;BME280;32048;49.902;22.508;2022-09-03T14:37:50;99081.41;;;17.06;75.52
37634;BME280;32048;49.902;22.508;2022-09-03T14:40:45;99077.44;;;16.87;76.43
37634;BME280;32048;49.902;22.508;2022-09-03T15:11:18;99112.25;;;16.47;78.02
37634;BME280;32048;49.902;22.508;2022-09-03T15:14:16;99119.72;;;16.42;78.72
37634;BME280;32048;49.902;22.508;2022-09-03T15:17:00;99111.22;;;16.37;79.27
37634;BME280;32048;49.902;22.508;2022-09-03T15:19:43;99126.13;;;16.27;80.07
37634;BME280;32048;49.902;22.508;2022-09-03T15:22:36;99119.19;;;16.11;81.46
37634;BME280;32048;49.902;22.508;2022-09-03T15:25:42;99113.97;;;15.97;81.93
37634;BME280;32048;49.902;22.508;2022-09-03T15:33:42;99126.91;;;15.76;83.87
37634;BME280;32048;49.902;22.508;2022-09-03T15:41:32;99122.31;;;15.65;83.72
37634;BME280;32048;49.902;22.508;2022-09-03T15:44:00;99117.06;;;15.64;84.15
37634;BME280;32048;49.902;22.508;2022-09-03T15:46:32;99120.81;;;15.61;84.55
37634;BME280;32048;49.902;22.508;2022-09-03T15:49:05;99117.59;;;15.56;83.79
37634;BME280;32048;49.902;22.508;2022-09-03T15:51:52;99113.63;;;15.49;84.56
37634;BME280;32048;49.902;22.508;2022-09-03T15:57:04;99123.81;;;15.42;85.37
37634;BME280;32048;49.902;22.508;2022-09-03T15:59:41;99134.88;;;15.36;85.97
37634;BME280;32048;49.902;22.508;2022-09-03T16:02:24;99133.47;;;15.30;86.49
37634;BME280;32048;49.902;22.508;2022-09-03T16:10:10;99125.13;;;15.22;88.36
37634;BME280;32048;49.902;22.508;2022-09-03T16:13:16;99120.84;;;15.20;89.12
37634;BME280;32048;49.902;22.508;2022-09-03T16:16:07;99116.50;;;15.18;89.12
37634;BME280;32048;49.902;22.508;2022-09-03T16:18:58;99117.56;;;15.16;89.52
37634;BME280;32048;49.902;22.508;2022-09-03T16:24:33;99109.31;;;15.06;90.82
37634;BME280;32048;49.902;22.508;2022-09-03T16:27:17;99118.34;;;15.04;89.92
37634;BME280;32048;49.902;22.508;2022-09-03T16:30:12;99124.81;;;15.00;90.17
37634;BME280;32048;49.902;22.508;2022-09-03T16:32:57;99123.13;;;14.99;90.13
37634;BME280;32048;49.902;22.508;2022-09-03T16:35:46;99130.25;;;14.98;90.42
37634;BME280;32048;49.902;22.508;2022-09-03T16:38:27;99122.56;;;14.93;90.34
37634;BME280;32048;49.902;22.508;2022-09-03T16:43:45;99129.09;;;14.88;90.68
37634;BME280;32048;49.902;22.508;2022-09-03T16:46:41;99125.91;;;14.83;90.98
37634;BME280;32048;49.902;22.508;2022-09-03T16:49:28;99127.25;;;14.75;91.73
37634;BME280;32048;49.902;22.508;2022-09-03T16:52:20;99131.13;;;14.70;92.05
37634;BME280;32048;49.902;22.508;2022-09-03T16:57:58;99124.59;;;14.61;92.77
37634;BME280;32048;49.902;22.508;2022-09-03T17:03:31;99127.53;;;14.57;93.34
37634;BME280;32048;49.902;22.508;2022-09-03T17:14:26;99136.34;;;14.43;95.58